Time,TemperatureF,DewpointF,PressureIn,WindDirection,WindDirectionDegrees,WindSpeedMPH,WindSpeedGustMPH,Humidity,HourlyPrecipIn,Conditions,Clouds,dailyrainin,SolarRadiationWatts/m^2,SoftwareType,DateUTC
2013-01-02 00:22:00,11.0,7.0,-100.00,West,280,2.0,4.0,82,0.00,,,0.21,0.000000,,2013-01-02 07:22:00,
2013-01-02 00:32:00,11.0,7.0,-100.00,West,280,2.0,4.0,82,0.00,,,0.21,0.000000,,2013-01-02 07:32:00,
2013-01-02 00:42:00,11.0,7.0,-100.00,West,280,2.0,4.0,82,0.00,,,0.21,0.000000,,2013-01-02 07:42:00,
2013-01-02 00:52:00,11.0,7.0,-100.00,West,280,2.0,4.0,82,0.00,,,0.21,0.000000,,2013-01-02 07:52:00,
2013-01-02 01:22:00,9.0,4.0,-100.00,North,11,3.0,5.0,80,-99.99,,,0.21,0.000000,,2013-01-02 08:22:00,
2013-01-02 01:32:00,9.0,4.0,-100.00,North,11,3.0,5.0,80,-99.99,,,0.21,0.000000,,2013-01-02 08:32:00,
2013-01-02 01:42:00,9.0,4.0,-100.00,North,11,3.0,5.0,80,-99.99,,,0.21,0.000000,,2013-01-02 08:42:00,
2013-01-02 01:52:00,9.0,4.0,-100.00,North,11,3.0,5.0,80,-99.99,,,0.21,0.000000,,2013-01-02 08:52:00,
2013-01-02 02:22:00,12.0,8.0,-100.00,NNE,23,2.0,5.0,83,0.00,,,0.21,0.000000,,2013-01-02 09:22:00,
2013-01-02 02:32:00,12.0,8.0,-100.00,NNE,23,2.0,5.0,83,0.00,,,0.21,0.000000,,2013-01-02 09:32:00,
2013-01-02 03:12:00,10.0,5.0,-100.00,NNE,17,4.0,5.0,78,-99.99,,,0.21,0.000000,,2013-01-02 10:12:00,
2013-01-02 03:22:00,10.0,5.0,-100.00,NNE,17,4.0,5.0,78,-99.99,,,0.21,0.000000,,2013-01-02 10:22:00,
2013-01-02 03:32:00,10.0,5.0,-100.00,NNE,17,4.0,5.0,78,-99.99,,,0.21,0.000000,,2013-01-02 10:32:00,
2013-01-02 03:42:00,10.0,5.0,-100.00,NNE,17,4.0,5.0,78,-99.99,,,0.21,0.000000,,2013-01-02 10:42:00,
2013-01-02 03:52:00,10.0,5.0,-100.00,NNE,17,4.0,5.0,78,-99.99,,,0.21,0.000000,,2013-01-02 10:52:00,
2013-01-02 04:22:00,6.0,0.0,-100.00,NE,39,2.0,5.0,75,0.00,,,0.21,0.000000,,2013-01-02 11:22:00,
2013-01-02 04:32:00,6.0,0.0,-100.00,NE,39,2.0,5.0,75,0.00,,,0.21,0.000000,,2013-01-02 11:32:00,
2013-01-02 04:42:00,6.0,0.0,-100.00,NE,39,2.0,5.0,75,0.00,,,0.21,0.000000,,2013-01-02 11:42:00,
2013-01-02 04:52:00,6.0,0.0,-100.00,NE,39,2.0,5.0,75,0.00,,,0.21,0.000000,,2013-01-02 11:52:00,
2013-01-02 05:22:00,5.0,-1.0,-100.00,NNE,23,5.0,6.0,77,0.00,,,-99.99,0.000000,,2013-01-02 12:22:00,
2013-01-02 05:32:00,5.0,-1.0,-100.00,NNE,23,5.0,6.0,77,0.00,,,-99.99,0.000000,,2013-01-02 12:32:00,
2013-01-02 05:42:00,5.0,-1.0,-100.00,NNE,23,5.0,6.0,77,0.00,,,-99.99,0.000000,,2013-01-02 12:42:00,
2013-01-02 05:52:00,5.0,-1.0,-100.00,NNE,23,5.0,6.0,77,0.00,,,-99.99,0.000000,,2013-01-02 12:52:00,
2013-01-02 06:22:00,4.0,-1.0,-100.00,North,11,2.0,6.0,80,0.00,,,0.21,0.000000,,2013-01-02 13:22:00,
2013-01-02 06:32:00,4.0,-1.0,-100.00,North,11,2.0,6.0,80,0.00,,,0.21,0.000000,,2013-01-02 13:32:00,
2013-01-02 06:42:00,4.0,-1.0,-100.00,North,11,2.0,6.0,80,0.00,,,0.21,0.000000,,2013-01-02 13:42:00,
2013-01-02 06:52:00,4.0,-1.0,-100.00,North,11,2.0,6.0,80,0.00,,,0.21,0.000000,,2013-01-02 13:52:00,
2013-01-02 07:22:00,4.0,-1.0,-100.00,NNE,25,2.0,6.0,79,0.00,,,0.21,0.000000,,2013-01-02 14:22:00,
2013-01-02 07:32:00,4.0,-1.0,-100.00,NNE,25,2.0,6.0,79,0.00,,,0.21,0.000000,,2013-01-02 14:32:00,
2013-01-02 07:42:00,4.0,-1.0,-100.00,NNE,25,2.0,6.0,79,0.00,,,0.21,0.000000,,2013-01-02 14:42:00,
2013-01-02 07:53:00,4.0,-1.0,-100.00,NNE,25,2.0,6.0,79,0.00,,,0.21,0.000000,,2013-01-02 14:53:00,
2013-01-02 08:22:00,6.0,0.0,-100.00,NE,45,2.0,6.0,76,0.00,,,0.21,11.000000,,2013-01-02 15:22:00,
2013-01-02 08:33:00,6.0,0.0,-100.00,NE,45,2.0,6.0,76,0.00,,,0.21,11.000000,,2013-01-02 15:33:00,
2013-01-02 08:42:00,6.0,0.0,-100.00,NE,45,2.0,6.0,76,0.00,,,0.21,11.000000,,2013-01-02 15:42:00,
2013-01-02 08:52:00,6.0,0.0,-100.00,NE,45,2.0,6.0,76,0.00,,,0.21,11.000000,,2013-01-02 15:52:00,
2013-01-02 09:22:00,16.0,4.0,-100.00,South,169,1.0,4.0,59,0.00,,,0.21,131.000000,,2013-01-02 16:22:00,
2013-01-02 10:22:00,19.0,5.0,-100.00,South,173,3.0,6.0,53,-99.99,,,0.21,238.000000,,2013-01-02 17:22:00,
2013-01-02 10:43:00,19.0,5.0,-100.00,South,173,3.0,6.0,53,-99.99,,,0.21,238.000000,,2013-01-02 17:43:00,
2013-01-02 10:53:00,19.0,5.0,-100.00,South,173,3.0,6.0,53,-99.99,,,0.21,238.000000,,2013-01-02 17:53:00,
2013-01-02 11:22:00,23.0,7.0,-100.00,SSE,157,4.0,7.0,49,-99.99,,,-99.99,386.000000,,2013-01-02 18:22:00,
2013-01-02 11:33:00,23.0,7.0,-100.00,SSE,157,4.0,7.0,49,-99.99,,,-99.99,386.000000,,2013-01-02 18:33:00,
2013-01-02 12:22:00,26.0,8.0,-100.00,SSE,155,4.0,7.0,45,-99.99,,,0.09,553.000000,,2013-01-02 19:22:00,
2013-01-02 12:32:00,26.0,8.0,-100.00,SSE,155,4.0,7.0,45,-99.99,,,0.09,553.000000,,2013-01-02 19:32:00,
2013-01-02 13:22:00,27.0,9.0,-100.00,SE,146,4.0,8.0,45,0.00,,,0.02,576.000000,,2013-01-02 20:22:00,
2013-01-02 13:33:00,27.0,9.0,-100.00,SE,146,4.0,8.0,45,0.00,,,0.02,576.000000,,2013-01-02 20:33:00,
2013-01-02 13:42:00,27.0,9.0,-100.00,SE,146,4.0,8.0,45,0.00,,,0.02,576.000000,,2013-01-02 20:42:00,
2013-01-02 13:53:00,27.0,9.0,-100.00,SE,146,4.0,8.0,45,0.00,,,0.02,576.000000,,2013-01-02 20:53:00,
2013-01-02 14:22:00,28.0,9.0,-100.00,SSE,159,5.0,10.0,45,0.00,,,0.01,535.000000,,2013-01-02 21:22:00,
2013-01-02 14:32:00,28.0,9.0,-100.00,SSE,159,5.0,10.0,45,0.00,,,0.01,535.000000,,2013-01-02 21:32:00,
2013-01-02 15:22:00,28.0,8.0,-100.00,SSE,166,5.0,9.0,42,0.00,,,0.00,434.000000,,2013-01-02 22:22:00,
2013-01-02 15:32:00,28.0,8.0,-100.00,SSE,166,5.0,9.0,42,0.00,,,0.00,434.000000,,2013-01-02 22:32:00,
2013-01-02 15:42:00,28.0,8.0,-100.00,SSE,166,5.0,9.0,42,0.00,,,0.00,434.000000,,2013-01-02 22:42:00,
2013-01-02 15:52:00,28.0,8.0,-100.00,SSE,166,5.0,9.0,42,0.00,,,0.00,434.000000,,2013-01-02 22:52:00,
2013-01-02 16:22:00,27.0,9.0,-100.00,SSE,153,4.0,8.0,46,0.00,,,0.00,286.000000,,2013-01-02 23:22:00,
2013-01-02 16:33:00,27.0,9.0,-100.00,SSE,153,4.0,8.0,46,0.00,,,0.00,286.000000,,2013-01-02 23:33:00,
2013-01-02 16:42:00,27.0,9.0,-100.00,SSE,153,4.0,8.0,46,0.00,,,0.00,286.000000,,2013-01-02 23:42:00,
2013-01-02 16:52:00,27.0,9.0,-100.00,SSE,153,4.0,8.0,46,0.00,,,0.00,286.000000,,2013-01-02 23:52:00,
2013-01-02 17:22:00,24.0,7.0,-100.00,SW,214,2.0,6.0,48,0.00,,,0.00,107.000000,,2013-01-03 00:22:00,
2013-01-02 17:37:00,24.0,7.0,-100.00,SW,214,2.0,6.0,48,0.00,,,0.00,107.000000,,2013-01-03 00:37:00,
2013-01-02 17:52:00,24.0,7.0,-100.00,SW,214,2.0,6.0,48,0.00,,,0.00,107.000000,,2013-01-03 00:52:00,
2013-01-02 18:22:00,15.0,6.0,-100.00,NNE,13,3.0,5.0,67,0.00,,,0.00,2.000000,,2013-01-03 01:22:00,
2013-01-02 18:32:00,15.0,6.0,-100.00,NNE,13,3.0,5.0,67,0.00,,,0.00,2.000000,,2013-01-03 01:32:00,
2013-01-02 18:42:00,15.0,6.0,-100.00,NNE,13,3.0,5.0,67,0.00,,,0.00,2.000000,,2013-01-03 01:42:00,
2013-01-02 18:52:00,15.0,6.0,-100.00,NNE,13,3.0,5.0,67,0.00,,,0.00,2.000000,,2013-01-03 01:52:00,
2013-01-02 19:22:00,12.0,5.0,-100.00,NNE,16,4.0,7.0,72,0.00,,,0.00,0.000000,,2013-01-03 02:22:00,
2013-01-02 19:33:00,12.0,5.0,-100.00,NNE,16,4.0,7.0,72,0.00,,,0.00,0.000000,,2013-01-03 02:33:00,
2013-01-02 19:42:00,12.0,5.0,-100.00,NNE,16,4.0,7.0,72,0.00,,,0.00,0.000000,,2013-01-03 02:42:00,
2013-01-02 19:52:00,12.0,5.0,-100.00,NNE,16,4.0,7.0,72,0.00,,,0.00,0.000000,,2013-01-03 02:52:00,
2013-01-02 20:22:00,12.0,5.0,-100.00,NNE,26,4.0,8.0,72,0.00,,,0.00,0.000000,,2013-01-03 03:22:00,
2013-01-02 20:42:00,12.0,5.0,-100.00,NNE,26,4.0,8.0,72,0.00,,,0.00,0.000000,,2013-01-03 03:42:00,
2013-01-02 20:52:00,12.0,5.0,-100.00,NNE,26,4.0,8.0,72,0.00,,,0.00,0.000000,,2013-01-03 03:52:00,
2013-01-02 21:22:00,11.0,3.0,-100.00,North,4,5.0,7.0,70,0.00,,,0.00,0.000000,,2013-01-03 04:22:00,
2013-01-02 21:32:00,11.0,3.0,-100.00,North,4,5.0,7.0,70,0.00,,,0.00,0.000000,,2013-01-03 04:32:00,
2013-01-02 21:42:00,11.0,3.0,-100.00,North,4,5.0,7.0,70,0.00,,,0.00,0.000000,,2013-01-03 04:42:00,
2013-01-02 21:52:00,11.0,3.0,-100.00,North,4,5.0,7.0,70,0.00,,,0.00,0.000000,,2013-01-03 04:52:00,
2013-01-02 22:22:00,11.0,4.0,-100.00,North,357,4.0,7.0,72,0.00,,,0.00,0.000000,,2013-01-03 05:22:00,
2013-01-02 22:33:00,11.0,4.0,-100.00,North,357,4.0,7.0,72,0.00,,,0.00,0.000000,,2013-01-03 05:33:00,
2013-01-02 22:42:00,11.0,4.0,-100.00,North,357,4.0,7.0,72,0.00,,,0.00,0.000000,,2013-01-03 05:42:00,
2013-01-02 22:52:00,11.0,4.0,-100.00,North,357,4.0,7.0,72,0.00,,,0.00,0.000000,,2013-01-03 05:52:00,
2013-01-02 23:22:00,10.0,3.0,-100.00,NNE,20,4.0,7.0,73,0.00,,,0.00,0.000000,,2013-01-03 06:22:00,
2013-01-02 23:32:00,10.0,3.0,-100.00,NNE,20,4.0,7.0,73,0.00,,,0.00,0.000000,,2013-01-03 06:32:00,
2013-01-02 23:42:00,10.0,3.0,-100.00,NNE,20,4.0,7.0,73,0.00,,,0.00,0.000000,,2013-01-03 06:42:00,
2013-01-02 23:52:00,10.0,3.0,-100.00,NNE,20,4.0,7.0,73,0.00,,,0.00,0.000000,,2013-01-03 06:52:00,